Airfield :
LOGIN :

Register | Disclaimer

   EN    FR    IT 

 










Legend :    VFR   Marginal VFR   IFR   Intensive IFR   Very Intensive IFR
Visi :
Ceiling :
>= 8 km
>= 3000ft
5 to 8 km
1000 to 3000 ft
1500m to 5 km
500 to 1000 ft
800 to 1500m
200 to 500 ft
< 800m
< 200 ft
Symbols :   Thunderstorms  Fog  Heavy snow  Heavy precipitations  Wind > 20 kt
SIGMETs :     Misc.  Thunderstorms  Icing  Turbulence  Mountain Waves  Volcanic Ashes






- Airport Elevation : 290 ft
- IATA code : ACI


EGJA - Alderney

CURRENT METAR :
  • 041320Z 21012KT 9999 FEW004 BKN032 15/14 Q1019

EXPIRED METARs :
  • 041250Z 21013KT 9999 -DZ FEW004 BKN010 15/14 Q1019 REDZ
  • 041220Z 21013KT 3000 DZ FEW006 BKN008 15/13 Q1019
  • 041150Z 22013KT 9999 FEW009 BKN012 15/13 Q1019
  • 041120Z 22012KT 9999 FEW009 BKN012 15/13 Q1019
  • 041050Z 22013KT 9999 SCT011 16/13 Q1019

TAF AMD TAF EGJA
Valid from the 04 at 12:00 until the 04 at 21:00 UTC


041228Z 0412/0421 21011KT 9999 SCT010 BKN022
TEMPO 0412/0415 3000 DZ SCT005 BKN009



MET'MAP, your aeronautical weather chart ! - Copyright ORBIFLY December 2007 - Disclaimer

ORBIFLY MET'MAP TEAM :

Programming & Development : Alexandra Zaïnal
Original concept : Baudouin d'Aumeries
Technical & hardware support : Manuel Goepfert
Assistance : Marc-Olivier Méhu




SOURCES & CREDITS :

   NOAA